Time;durP1;ratioP1;P1;durP2;ratioP2;P2;SDS_P1;SDS_P2;PMS_P1;PMS_P2;Temp;Humidity;BMP_temperature;BMP_pressure;BME280_temperature;BME280_humidity;BME280_pressure;Samples;Min_cycle;Max_cycle;Signal;HPM_P1;HPM_P2
2021/07/08 00:00:15;;;;;;;48.25;9.10;;;;;;;;;;5065209;28;20056;-38
2021/07/08 00:02:42;;;;;;;61.80;11.27;;;;;;;;;;5069405;28;20363;-49
2021/07/08 00:05:13;;;;;;;59.10;10.90;;;;;;;;;;5051286;28;20131;-39
2021/07/08 00:07:40;;;;;;;60.13;11.13;;;;;;;;;;5048999;28;20056;-43
2021/07/08 00:10:12;;;;;;;47.00;9.68;;;;;;;;;;5045406;28;20036;-37
2021/07/08 00:12:39;;;;;;;51.55;9.55;;;;;;;;;;5049684;28;20029;-41
2021/07/08 00:15:08;;;;;;;62.33;10.30;;;;;;;;;;5049886;28;20432;-38
2021/07/08 00:17:36;;;;;;;63.72;10.90;;;;;;;;;;5049177;28;20021;-46
2021/07/08 00:20:07;;;;;;;49.15;9.57;;;;;;;;;;5047352;28;20135;-38
2021/07/08 00:22:34;;;;;;;57.85;9.90;;;;;;;;;;5048751;28;20029;-38
2021/07/08 00:25:01;;;;;;;55.95;9.25;;;;;;;;;;5050175;28;20476;-37
2021/07/08 00:27:28;;;;;;;49.70;10.98;;;;;;;;;;5049691;28;20029;-38
2021/07/08 00:29:55;;;;;;;51.53;10.23;;;;;;;;;;5049216;28;20098;-35
2021/07/08 00:32:22;;;;;;;66.03;9.75;;;;;;;;;;5045639;28;20024;-39
2021/07/08 00:34:49;;;;;;;59.00;10.27;;;;;;;;;;5048594;28;20091;-40
2021/07/08 00:37:16;;;;;;;58.70;10.43;;;;;;;;;;5047478;28;20036;-44
2021/07/08 00:39:43;;;;;;;43.10;9.57;;;;;;;;;;5047313;28;20060;-38
2021/07/08 00:42:11;;;;;;;53.55;10.43;;;;;;;;;;5042250;28;20048;-44
2021/07/08 00:44:38;;;;;;;44.03;9.65;;;;;;;;;;5047251;28;20029;-37
2021/07/08 00:47:05;;;;;;;59.17;10.35;;;;;;;;;;5048091;28;20013;-40
2021/07/08 00:49:32;;;;;;;41.63;8.90;;;;;;;;;;5046816;28;20025;-40
2021/07/08 00:52:00;;;;;;;45.38;9.20;;;;;;;;;;5042011;28;20363;-35
2021/07/08 00:54:27;;;;;;;37.25;8.38;;;;;;;;;;5047495;28;20028;-40
2021/07/08 00:56:54;;;;;;;48.25;9.35;;;;;;;;;;5048118;28;20705;-36
2021/07/08 00:59:21;;;;;;;40.55;8.98;;;;;;;;;;5048750;28;20018;-38
2021/07/08 01:01:48;;;;;;;41.65;9.45;;;;;;;;;;5044815;28;20021;-40
2021/07/08 01:04:16;;;;;;;48.30;9.73;;;;;;;;;;5060862;28;20040;-40
2021/07/08 01:06:46;;;;;;;47.15;9.80;;;;;;;;;;5069105;28;20051;-37
2021/07/08 01:09:14;;;;;;;61.90;11.93;;;;;;;;;;5068299;28;20033;-39
2021/07/08 01:11:41;;;;;;;47.85;9.52;;;;;;;;;;5046200;28;20033;-40
2021/07/08 01:14:08;;;;;;;49.80;10.98;;;;;;;;;;5069618;28;20036;-38
2021/07/08 01:16:36;;;;;;;39.58;9.90;;;;;;;;;;5068770;28;20506;-40
2021/07/08 01:19:04;;;;;;;59.80;10.95;;;;;;;;;;5071574;28;20024;-36
2021/07/08 01:21:32;;;;;;;38.47;9.65;;;;;;;;;;5068905;28;20588;-39
2021/07/08 01:24:02;;;;;;;39.47;9.60;;;;;;;;;;5069683;28;20089;-42
2021/07/08 01:26:29;;;;;;;46.28;9.57;;;;;;;;;;5057153;28;20044;-40
2021/07/08 01:28:56;;;;;;;42.20;10.65;;;;;;;;;;5054304;28;20082;-42
2021/07/08 01:31:24;;;;;;;56.40;10.20;;;;;;;;;;5067021;28;20460;-40
2021/07/08 01:33:52;;;;;;;43.05;10.95;;;;;;;;;;5068695;28;20021;-41
2021/07/08 01:36:19;;;;;;;38.30;10.85;;;;;;;;;;5072557;28;20024;-40
2021/07/08 01:38:46;;;;;;;32.47;9.93;;;;;;;;;;5071536;28;20024;-42
2021/07/08 01:41:13;;;;;;;36.92;9.45;;;;;;;;;;5072756;28;20017;-40
2021/07/08 01:43:42;;;;;;;37.22;10.38;;;;;;;;;;5069522;28;20123;-40
2021/07/08 01:46:10;;;;;;;42.58;9.98;;;;;;;;;;5060528;28;20100;-40
2021/07/08 01:48:38;;;;;;;42.00;10.13;;;;;;;;;;5067790;28;20028;-40
2021/07/08 01:51:06;;;;;;;39.05;9.95;;;;;;;;;;5059052;28;20110;-40
2021/07/08 01:53:33;;;;;;;39.40;9.10;;;;;;;;;;5054824;28;20032;-41
2021/07/08 01:56:00;;;;;;;55.22;11.82;;;;;;;;;;5052423;28;20487;-38
2021/07/08 01:58:27;;;;;;;32.17;10.32;;;;;;;;;;5052593;28;20025;-39
2021/07/08 02:00:54;;;;;;;43.45;9.77;;;;;;;;;;5068624;28;20340;-41
2021/07/08 02:03:21;;;;;;;36.80;9.80;;;;;;;;;;5064093;28;20047;-43
2021/07/08 02:05:48;;;;;;;39.03;9.57;;;;;;;;;;5035353;28;20045;-40
2021/07/08 02:08:16;;;;;;;34.95;9.32;;;;;;;;;;5040141;28;20484;-43
2021/07/08 02:10:43;;;;;;;42.25;9.88;;;;;;;;;;5052288;28;20079;-41
2021/07/08 02:13:10;;;;;;;35.85;9.52;;;;;;;;;;5047967;28;20184;-40
2021/07/08 02:15:37;;;;;;;38.95;9.38;;;;;;;;;;5052942;28;20021;-40
2021/07/08 02:18:05;;;;;;;38.20;9.90;;;;;;;;;;5052508;28;20506;-39
2021/07/08 02:20:32;;;;;;;30.08;8.80;;;;;;;;;;5050600;28;20021;-38
2021/07/08 02:22:59;;;;;;;46.50;9.73;;;;;;;;;;5039594;28;20087;-40
2021/07/08 02:25:26;;;;;;;29.95;9.25;;;;;;;;;;5051490;28;20024;-39
2021/07/08 02:27:54;;;;;;;37.95;9.23;;;;;;;;;;5049459;28;20384;-41
2021/07/08 02:30:23;;;;;;;28.42;8.00;;;;;;;;;;5050150;28;20029;-43
2021/07/08 02:32:52;;;;;;;30.23;8.68;;;;;;;;;;5043387;28;20044;-40
2021/07/08 02:35:20;;;;;;;43.40;9.73;;;;;;;;;;5048288;28;20404;-43
2021/07/08 02:37:47;;;;;;;31.77;9.30;;;;;;;;;;5051484;28;20045;-38
2021/07/08 02:40:16;;;;;;;34.03;8.93;;;;;;;;;;5051516;28;20053;-38
2021/07/08 02:42:50;;;;;;;31.30;8.77;;;;;;;;;;5035989;28;20025;-41
2021/07/08 02:45:17;;;;;;;33.00;10.07;;;;;;;;;;5045356;28;20029;-38
2021/07/08 02:47:44;;;;;;;29.65;8.07;;;;;;;;;;5041720;28;20101;-40
2021/07/08 02:50:12;;;;;;;31.20;8.55;;;;;;;;;;5040433;28;20037;-44
2021/07/08 02:52:39;;;;;;;57.20;9.35;;;;;;;;;;5042627;28;20025;-47
2021/07/08 02:55:06;;;;;;;31.33;9.00;;;;;;;;;;5048011;28;20021;-44
2021/07/08 02:57:33;;;;;;;30.20;8.23;;;;;;;;;;5045754;28;20032;-35
2021/07/08 03:00:01;;;;;;;30.73;8.30;;;;;;;;;;5050820;28;20070;-42
2021/07/08 03:02:28;;;;;;;33.95;8.63;;;;;;;;;;5042115;28;20122;-35
2021/07/08 03:04:55;;;;;;;33.22;8.18;;;;;;;;;;5068790;28;20452;-38
2021/07/08 03:07:22;;;;;;;33.63;9.52;;;;;;;;;;5071078;28;20076;-39
2021/07/08 03:09:49;;;;;;;30.50;8.95;;;;;;;;;;5070059;28;20043;-40
2021/07/08 03:12:16;;;;;;;38.35;8.38;;;;;;;;;;5068985;28;20063;-40
2021/07/08 03:14:43;;;;;;;25.83;7.90;;;;;;;;;;5070195;28;20026;-40
2021/07/08 03:17:10;;;;;;;28.45;9.15;;;;;;;;;;5072672;28;20027;-35
2021/07/08 03:19:38;;;;;;;31.38;8.80;;;;;;;;;;5070398;28;20035;-38
2021/07/08 03:22:05;;;;;;;32.28;8.95;;;;;;;;;;5070468;28;20434;-37
2021/07/08 03:24:32;;;;;;;32.40;8.77;;;;;;;;;;5067447;28;20024;-36
2021/07/08 03:26:59;;;;;;;26.90;8.98;;;;;;;;;;5071740;28;20021;-41
2021/07/08 03:29:26;;;;;;;30.55;8.05;;;;;;;;;;5067614;28;20380;-40
2021/07/08 03:31:53;;;;;;;25.27;9.52;;;;;;;;;;5068022;28;20031;-37
2021/07/08 03:34:20;;;;;;;40.75;8.13;;;;;;;;;;5067643;28;20025;-38
2021/07/08 03:36:47;;;;;;;23.17;8.38;;;;;;;;;;5071657;28;20024;-40
2021/07/08 03:39:14;;;;;;;31.50;8.10;;;;;;;;;;5071232;28;20065;-42
2021/07/08 03:41:41;;;;;;;21.65;8.13;;;;;;;;;;5064657;28;20025;-36
2021/07/08 03:44:08;;;;;;;25.45;8.43;;;;;;;;;;5066817;28;20048;-37
2021/07/08 03:46:35;;;;;;;22.05;7.90;;;;;;;;;;5072293;28;20021;-36
2021/07/08 03:49:03;;;;;;;27.20;8.63;;;;;;;;;;5063272;28;20063;-38
2021/07/08 03:51:30;;;;;;;24.25;7.70;;;;;;;;;;5050592;28;20029;-38
2021/07/08 03:53:57;;;;;;;20.52;7.95;;;;;;;;;;5056848;28;20025;-37
2021/07/08 03:56:24;;;;;;;22.38;7.60;;;;;;;;;;5072502;28;20020;-37
2021/07/08 03:58:51;;;;;;;24.10;7.65;;;;;;;;;;5072256;28;20069;-37
2021/07/08 04:01:18;;;;;;;28.90;8.20;;;;;;;;;;5071653;28;20020;-39
2021/07/08 04:03:45;;;;;;;35.47;8.65;;;;;;;;;;5066739;28;20519;-40
2021/07/08 04:06:12;;;;;;;26.90;8.20;;;;;;;;;;5072024;28;20021;-40
2021/07/08 04:08:39;;;;;;;23.70;8.00;;;;;;;;;;5072061;28;20501;-39
2021/07/08 04:11:06;;;;;;;24.73;7.55;;;;;;;;;;5071194;28;20048;-39
2021/07/08 04:13:33;;;;;;;25.45;7.50;;;;;;;;;;5069497;28;20117;-39
2021/07/08 04:16:00;;;;;;;26.15;7.75;;;;;;;;;;5069533;28;20016;-40
2021/07/08 04:18:28;;;;;;;20.75;7.05;;;;;;;;;;5072040;28;20092;-40
2021/07/08 04:20:55;;;;;;;26.13;7.78;;;;;;;;;;5071349;28;20021;-39
2021/07/08 04:23:22;;;;;;;21.00;7.55;;;;;;;;;;5071426;28;20060;-40
2021/07/08 04:25:49;;;;;;;25.92;7.82;;;;;;;;;;5067058;28;20016;-39
2021/07/08 04:28:16;;;;;;;18.60;7.45;;;;;;;;;;5071576;28;20021;-37
2021/07/08 04:30:43;;;;;;;19.13;7.72;;;;;;;;;;5071655;28;20036;-39
2021/07/08 04:33:10;;;;;;;21.10;7.18;;;;;;;;;;5070917;28;20376;-40
2021/07/08 04:35:41;;;;;;;22.90;7.15;;;;;;;;;;5066927;28;20051;-39
2021/07/08 04:38:09;;;;;;;17.83;7.13;;;;;;;;;;5071680;28;20056;-40
2021/07/08 04:40:37;;;;;;;23.60;7.22;;;;;;;;;;5071773;28;20100;-41
2021/07/08 04:43:04;;;;;;;20.50;7.32;;;;;;;;;;5070507;28;20567;-39
2021/07/08 04:45:31;;;;;;;21.75;7.45;;;;;;;;;;5067090;28;20028;-40
2021/07/08 04:48:01;;;;;;;21.48;7.10;;;;;;;;;;5071956;28;20012;-40
2021/07/08 04:50:29;;;;;;;17.33;6.88;;;;;;;;;;5071799;28;20043;-39
2021/07/08 04:52:56;;;;;;;15.48;6.43;;;;;;;;;;5072019;28;20497;-39
2021/07/08 04:55:24;;;;;;;23.92;7.07;;;;;;;;;;5071117;28;20096;-38
2021/07/08 04:57:51;;;;;;;17.17;7.50;;;;;;;;;;5075517;28;20107;-39
2021/07/08 05:00:20;;;;;;;18.08;7.22;;;;;;;;;;5075576;28;20097;-39
2021/07/08 05:02:48;;;;;;;14.55;7.03;;;;;;;;;;5075167;28;20024;-37
2021/07/08 05:05:15;;;;;;;18.17;7.22;;;;;;;;;;5050450;28;20723;-37
2021/07/08 05:07:42;;;;;;;20.02;7.28;;;;;;;;;;5055388;28;20104;-36
2021/07/08 05:10:10;;;;;;;14.77;6.55;;;;;;;;;;5055556;28;20045;-39
2021/07/08 05:12:38;;;;;;;18.55;7.20;;;;;;;;;;5054783;28;20021;-40
2021/07/08 05:15:06;;;;;;;18.67;6.43;;;;;;;;;;5052981;28;20147;-39
2021/07/08 05:17:33;;;;;;;21.35;6.95;;;;;;;;;;5053717;28;20025;-39
2021/07/08 05:20:00;;;;;;;17.73;7.07;;;;;;;;;;5055398;28;20416;-39
2021/07/08 05:22:27;;;;;;;18.02;6.63;;;;;;;;;;5054900;28;20029;-37
2021/07/08 05:24:54;;;;;;;20.60;6.85;;;;;;;;;;5054267;28;20538;-38
2021/07/08 05:27:21;;;;;;;18.08;6.63;;;;;;;;;;5050586;28;20060;-38
2021/07/08 05:29:48;;;;;;;22.27;7.00;;;;;;;;;;5054900;28;20044;-39
2021/07/08 05:32:15;;;;;;;16.52;6.65;;;;;;;;;;5055146;28;20066;-39
2021/07/08 05:34:43;;;;;;;22.65;7.78;;;;;;;;;;5054440;28;20021;-39
2021/07/08 05:37:10;;;;;;;21.10;6.60;;;;;;;;;;5049863;28;20063;-39
2021/07/08 05:39:38;;;;;;;14.95;5.72;;;;;;;;;;5054875;28;20040;-39
2021/07/08 05:42:05;;;;;;;14.82;6.78;;;;;;;;;;5054632;28;20078;-39
2021/07/08 05:44:33;;;;;;;15.80;6.72;;;;;;;;;;5053944;28;20029;-39
2021/07/08 05:47:00;;;;;;;15.50;7.35;;;;;;;;;;5050097;28;20028;-39
2021/07/08 05:49:27;;;;;;;16.95;6.40;;;;;;;;;;5054816;28;20035;-39
2021/07/08 05:51:54;;;;;;;16.58;6.28;;;;;;;;;;5054099;28;20025;-40
2021/07/08 05:54:21;;;;;;;16.65;7.15;;;;;;;;;;5053564;28;20025;-39
2021/07/08 05:56:48;;;;;;;13.68;6.32;;;;;;;;;;5049840;28;20044;-39
2021/07/08 05:59:15;;;;;;;12.70;6.15;;;;;;;;;;5054532;28;20052;-39
2021/07/08 06:01:42;;;;;;;13.07;6.93;;;;;;;;;;5054427;28;20377;-39
2021/07/08 06:04:09;;;;;;;15.35;6.68;;;;;;;;;;5064385;28;20052;-39
2021/07/08 06:06:36;;;;;;;14.75;6.35;;;;;;;;;;5069813;28;20029;-39
2021/07/08 06:09:03;;;;;;;17.05;6.63;;;;;;;;;;5073654;28;20039;-39
2021/07/08 06:11:30;;;;;;;16.50;6.53;;;;;;;;;;5074445;28;20028;-39
2021/07/08 06:13:57;;;;;;;12.13;5.90;;;;;;;;;;5073464;28;20025;-38
2021/07/08 06:16:24;;;;;;;14.38;6.60;;;;;;;;;;5072235;28;20510;-37
2021/07/08 06:18:51;;;;;;;12.98;6.00;;;;;;;;;;5071482;28;20414;-39
2021/07/08 06:21:18;;;;;;;18.65;6.55;;;;;;;;;;5074030;28;20047;-39
2021/07/08 06:23:46;;;;;;;14.50;6.65;;;;;;;;;;5073741;28;20033;-39
2021/07/08 06:26:13;;;;;;;14.40;6.30;;;;;;;;;;5073498;28;20024;-39
2021/07/08 06:28:41;;;;;;;15.25;6.50;;;;;;;;;;5069331;28;20033;-39
2021/07/08 06:31:09;;;;;;;15.98;6.68;;;;;;;;;;5074187;28;20024;-39
2021/07/08 06:33:36;;;;;;;11.27;5.85;;;;;;;;;;5073983;28;20396;-39
2021/07/08 06:36:03;;;;;;;15.55;6.35;;;;;;;;;;5073323;28;20375;-38
2021/07/08 06:38:30;;;;;;;11.80;5.50;;;;;;;;;;5051025;28;20024;-39
2021/07/08 06:40:57;;;;;;;14.82;6.53;;;;;;;;;;5073964;28;20480;-39
2021/07/08 06:43:24;;;;;;;17.58;6.32;;;;;;;;;;5073676;28;20039;-39
2021/07/08 06:45:51;;;;;;;9.40;5.55;;;;;;;;;;5073216;28;20024;-39
2021/07/08 06:48:18;;;;;;;13.75;6.88;;;;;;;;;;5068990;28;20028;-39
2021/07/08 06:50:45;;;;;;;16.83;6.05;;;;;;;;;;5073691;28;20078;-39
2021/07/08 06:53:13;;;;;;;12.05;6.00;;;;;;;;;;5073343;28;20977;-39
2021/07/08 06:55:40;;;;;;;12.23;5.95;;;;;;;;;;5073452;28;20025;-39
2021/07/08 06:58:07;;;;;;;14.52;5.75;;;;;;;;;;5068725;28;20659;-39
2021/07/08 07:00:38;;;;;;;15.95;6.55;;;;;;;;;;5073466;28;20024;-39
2021/07/08 07:03:06;;;;;;;12.52;5.57;;;;;;;;;;5073121;28;20047;-39
2021/07/08 07:05:33;;;;;;;12.80;5.85;;;;;;;;;;5073332;28;20031;-39
2021/07/08 07:08:00;;;;;;;14.32;6.75;;;;;;;;;;5068330;28;20040;-38
2021/07/08 07:10:28;;;;;;;12.27;5.70;;;;;;;;;;5072608;28;20060;-40
2021/07/08 07:12:56;;;;;;;14.50;6.68;;;;;;;;;;5073442;28;20044;-39
2021/07/08 07:15:24;;;;;;;15.85;6.38;;;;;;;;;;5072332;28;20025;-39
2021/07/08 07:17:52;;;;;;;11.10;6.05;;;;;;;;;;5071228;28;20174;-38
2021/07/08 07:20:19;;;;;;;17.17;6.30;;;;;;;;;;5070298;28;20021;-39
2021/07/08 07:22:48;;;;;;;12.88;6.22;;;;;;;;;;5073039;28;20036;-38
2021/07/08 07:25:19;;;;;;;13.77;6.65;;;;;;;;;;5072785;28;20029;-39
2021/07/08 07:27:50;;;;;;;15.00;7.38;;;;;;;;;;5072442;28;20023;-40
2021/07/08 07:30:18;;;;;;;14.95;6.53;;;;;;;;;;5068361;28;20029;-40
2021/07/08 07:32:45;;;;;;;19.30;7.05;;;;;;;;;;5072796;28;20053;-39
2021/07/08 07:35:13;;;;;;;13.10;6.13;;;;;;;;;;5072478;28;20479;-39
2021/07/08 07:37:41;;;;;;;13.63;6.00;;;;;;;;;;5072305;28;20153;-39
2021/07/08 07:40:09;;;;;;;11.25;6.22;;;;;;;;;;5068110;28;20472;-40
2021/07/08 07:42:36;;;;;;;12.65;6.45;;;;;;;;;;5072677;28;20422;-40
2021/07/08 07:45:07;;;;;;;13.52;6.15;;;;;;;;;;5072325;28;20028;-39
2021/07/08 07:47:34;;;;;;;13.27;6.20;;;;;;;;;;5071657;28;20047;-38
2021/07/08 07:50:02;;;;;;;12.88;6.38;;;;;;;;;;5067780;28;20373;-39
2021/07/08 07:52:29;;;;;;;12.07;5.65;;;;;;;;;;5072188;28;20021;-39
2021/07/08 07:54:56;;;;;;;10.38;5.78;;;;;;;;;;5072356;28;20036;-39
2021/07/08 07:57:23;;;;;;;11.52;6.00;;;;;;;;;;5072260;28;20468;-39
2021/07/08 07:59:50;;;;;;;12.40;5.57;;;;;;;;;;5067436;28;20024;-40
2021/07/08 08:02:17;;;;;;;12.50;6.13;;;;;;;;;;5072391;28;20025;-39
2021/07/08 08:05:07;;;;;;;15.65;5.82;;;;;;;;;;5072108;28;20099;-38
2021/07/08 08:10:17;;;;;;;11.93;5.95;;;;;;;;;;5066717;28;20091;-41
2021/07/08 08:12:44;;;;;;;14.20;6.10;;;;;;;;;;5072341;28;20094;-45
2021/07/08 08:15:11;;;;;;;13.57;6.13;;;;;;;;;;5071316;28;20472;-39
2021/07/08 08:17:38;;;;;;;12.38;5.70;;;;;;;;;;5071752;28;20187;-40
2021/07/08 08:20:06;;;;;;;14.93;6.28;;;;;;;;;;5066701;28;20202;-39
2021/07/08 08:22:34;;;;;;;11.32;5.45;;;;;;;;;;5072083;28;20107;-39
2021/07/08 08:25:01;;;;;;;11.85;6.10;;;;;;;;;;5071796;28;20127;-38
2021/07/08 08:27:28;;;;;;;13.43;5.72;;;;;;;;;;5070670;28;20108;-40
2021/07/08 08:29:55;;;;;;;10.55;5.88;;;;;;;;;;5067650;28;20099;-40
2021/07/08 08:32:22;;;;;;;10.65;5.53;;;;;;;;;;5071036;28;20024;-39
2021/07/08 08:34:49;;;;;;;11.50;6.07;;;;;;;;;;5072148;28;20379;-40
2021/07/08 08:37:16;;;;;;;11.65;5.63;;;;;;;;;;5071737;28;20031;-41
2021/07/08 08:39:43;;;;;;;12.52;5.93;;;;;;;;;;5070671;28;20024;-38
2021/07/08 08:42:10;;;;;;;12.63;5.97;;;;;;;;;;5067918;28;20028;-41
2021/07/08 08:44:37;;;;;;;12.43;6.57;;;;;;;;;;5072080;28;20025;-40
2021/07/08 08:47:08;;;;;;;10.55;5.68;;;;;;;;;;5071590;28;20428;-39
2021/07/08 08:49:42;;;;;;;12.40;5.95;;;;;;;;;;5071055;28;20036;-39
2021/07/08 08:52:10;;;;;;;11.93;6.05;;;;;;;;;;5066916;28;20652;-39
2021/07/08 08:54:38;;;;;;;13.65;5.90;;;;;;;;;;5071878;28;20025;-39
2021/07/08 08:57:05;;;;;;;11.75;6.07;;;;;;;;;;5054072;28;20067;-38
2021/07/08 08:59:32;;;;;;;11.93;6.05;;;;;;;;;;5071096;28;20046;-39
2021/07/08 09:02:15;;;;;;;10.32;5.65;;;;;;;;;;5066896;28;20353;-39
2021/07/08 09:04:42;;;;;;;10.48;6.32;;;;;;;;;;5071029;28;20124;-39
2021/07/08 09:07:23;;;;;;;11.32;6.30;;;;;;;;;;5071243;28;20016;-39
2021/07/08 09:09:52;;;;;;;15.10;6.55;;;;;;;;;;5071436;28;20039;-39
2021/07/08 09:12:22;;;;;;;13.68;7.10;;;;;;;;;;5066477;28;20021;-39
2021/07/08 09:14:49;;;;;;;11.48;5.90;;;;;;;;;;5071462;28;20017;-39
2021/07/08 09:17:20;;;;;;;15.80;6.97;;;;;;;;;;5071404;28;20042;-40
2021/07/08 09:19:48;;;;;;;11.93;6.35;;;;;;;;;;5071247;28;20055;-39
2021/07/08 09:22:35;;;;;;;11.65;6.10;;;;;;;;;;5066067;28;20028;-39
2021/07/08 09:25:22;;;;;;;13.75;6.25;;;;;;;;;;5071535;28;20024;-38
2021/07/08 09:27:50;;;;;;;11.23;6.07;;;;;;;;;;5071412;28;20025;-39
2021/07/08 09:30:30;;;;;;;15.07;6.40;;;;;;;;;;5071158;28;20056;-39
2021/07/08 09:32:57;;;;;;;9.75;5.72;;;;;;;;;;5066030;28;20033;-39
2021/07/08 09:35:34;;;;;;;12.25;6.00;;;;;;;;;;5071208;28;20052;-39
2021/07/08 09:38:11;;;;;;;10.27;6.22;;;;;;;;;;5071102;28;20024;-39
2021/07/08 09:40:38;;;;;;;11.10;6.13;;;;;;;;;;5074588;28;20111;-39
2021/07/08 09:43:05;;;;;;;10.15;6.43;;;;;;;;;;5069872;28;20025;-39
2021/07/08 09:45:44;;;;;;;13.82;6.53;;;;;;;;;;5074692;28;20448;-37
2021/07/08 09:48:20;;;;;;;15.68;7.28;;;;;;;;;;5074646;28;20045;-39
2021/07/08 09:50:47;;;;;;;13.05;6.82;;;;;;;;;;5074917;28;20032;-39
2021/07/08 09:53:20;;;;;;;12.57;6.68;;;;;;;;;;5069525;28;20035;-39
2021/07/08 09:56:10;;;;;;;12.30;6.45;;;;;;;;;;5074783;28;20043;-39
2021/07/08 09:58:51;;;;;;;13.50;7.20;;;;;;;;;;5073966;28;20025;-37
2021/07/08 10:01:18;;;;;;;14.20;6.80;;;;;;;;;;5073982;28;20415;-38
2021/07/08 10:03:45;;;;;;;13.30;6.57;;;;;;;;;;5069532;28;20380;-36
2021/07/08 10:06:12;;;;;;;12.68;6.60;;;;;;;;;;5074442;28;20055;-38
2021/07/08 10:08:40;;;;;;;14.57;7.00;;;;;;;;;;5074229;28;20027;-39
2021/07/08 10:11:09;;;;;;;12.30;6.78;;;;;;;;;;5074048;28;20112;-38
2021/07/08 10:13:38;;;;;;;15.75;7.70;;;;;;;;;;5051500;28;20020;-39
2021/07/08 10:16:05;;;;;;;14.18;6.97;;;;;;;;;;5073995;28;20100;-39
2021/07/08 10:18:34;;;;;;;16.80;7.68;;;;;;;;;;5074238;28;20028;-38
2021/07/08 10:21:02;;;;;;;15.15;7.45;;;;;;;;;;5073953;28;20028;-39
2021/07/08 10:23:32;;;;;;;15.15;7.30;;;;;;;;;;5069133;28;20032;-40
2021/07/08 10:26:00;;;;;;;14.48;6.72;;;;;;;;;;5074386;28;20027;-39
2021/07/08 10:28:30;;;;;;;15.20;7.35;;;;;;;;;;5073876;28;20115;-39
2021/07/08 10:30:58;;;;;;;13.50;7.22;;;;;;;;;;5055891;28;20075;-38
2021/07/08 10:33:26;;;;;;;16.25;7.20;;;;;;;;;;5069193;28;20020;-39
2021/07/08 10:35:53;;;;;;;10.80;6.30;;;;;;;;;;5073705;28;20032;-38
2021/07/08 10:38:31;;;;;;;13.23;6.63;;;;;;;;;;5073906;28;20513;-39
2021/07/08 10:40:59;;;;;;;14.10;6.43;;;;;;;;;;5073855;28;20035;-38
2021/07/08 10:43:43;;;;;;;12.60;6.28;;;;;;;;;;5073199;28;20020;-39
2021/07/08 10:46:11;;;;;;;16.02;6.72;;;;;;;;;;5073685;28;20029;-38
2021/07/08 10:48:39;;;;;;;14.13;6.65;;;;;;;;;;5073918;28;20430;-39
2021/07/08 10:51:07;;;;;;;10.98;6.13;;;;;;;;;;5072911;28;20024;-41
2021/07/08 10:53:42;;;;;;;10.07;6.03;;;;;;;;;;5073392;28;20021;-47
2021/07/08 10:56:14;;;;;;;9.25;5.47;;;;;;;;;;5073760;28;20111;-37
2021/07/08 10:58:55;;;;;;;12.40;6.22;;;;;;;;;;5073498;28;20025;-36
2021/07/08 11:01:22;;;;;;;10.07;5.57;;;;;;;;;;5073636;28;20029;-39
2021/07/08 11:03:52;;;;;;;9.90;6.05;;;;;;;;;;5073213;28;20047;-38
2021/07/08 11:06:23;;;;;;;8.95;5.53;;;;;;;;;;5072928;28;20033;-36
2021/07/08 11:08:51;;;;;;;10.32;5.47;;;;;;;;;;5072995;28;20044;-37
2021/07/08 11:11:24;;;;;;;11.00;5.43;;;;;;;;;;5073043;28;20051;-36
2021/07/08 11:13:52;;;;;;;185.43;18.52;;;;;;;;;;5065075;28;20068;-43
2021/07/08 11:16:37;;;;;;;127.50;15.70;;;;;;;;;;5065254;28;20028;-45
2021/07/08 11:19:04;;;;;;;49.15;8.13;;;;;;;;;;5069347;28;20024;-45
2021/07/08 11:21:53;;;;;;;26.77;6.70;;;;;;;;;;5053526;28;20024;-46
2021/07/08 11:24:21;;;;;;;37.38;7.70;;;;;;;;;;5053498;28;20763;-46
2021/07/08 11:26:52;;;;;;;34.83;8.13;;;;;;;;;;5066231;28;20508;-47
2021/07/08 11:29:37;;;;;;;34.08;8.10;;;;;;;;;;5070923;28;20419;-41
2021/07/08 11:32:17;;;;;;;21.60;6.13;;;;;;;;;;5068190;28;20099;-54
2021/07/08 11:34:54;;;;;;;21.02;5.75;;;;;;;;;;5070198;28;20028;-50
2021/07/08 11:37:27;;;;;;;51.97;5.97;;;;;;;;;;5065129;28;21041;-45
2021/07/08 11:39:57;;;;;;;24.45;5.53;;;;;;;;;;5071090;28;20017;-50
2021/07/08 11:42:25;;;;;;;33.28;5.68;;;;;;;;;;5071579;28;20058;-46
2021/07/08 11:44:53;;;;;;;23.27;6.15;;;;;;;;;;5065655;28;20021;-44
2021/07/08 11:47:20;;;;;;;52.13;7.57;;;;;;;;;;5061278;28;20172;-51
2021/07/08 11:49:48;;;;;;;25.33;6.05;;;;;;;;;;5071121;28;20085;-41
2021/07/08 11:52:29;;;;;;;29.40;6.40;;;;;;;;;;5070462;28;20020;-41
2021/07/08 11:54:56;;;;;;;22.15;5.63;;;;;;;;;;5068117;28;20027;-57
2021/07/08 11:57:23;;;;;;;98.53;11.55;;;;;;;;;;5067062;28;20040;-45
2021/07/08 11:59:51;;;;;;;48.15;8.93;;;;;;;;;;5066741;28;20032;-45
2021/07/08 12:02:37;;;;;;;35.35;6.93;;;;;;;;;;5070366;28;20571;-42
2021/07/08 12:05:17;;;;;;;56.22;9.18;;;;;;;;;;5070428;28;20048;-39
2021/07/08 12:07:49;;;;;;;61.15;8.48;;;;;;;;;;5062451;28;20050;-40
2021/07/08 12:10:23;;;;;;;56.00;7.88;;;;;;;;;;5068298;28;20044;-41
2021/07/08 12:12:55;;;;;;;34.35;7.53;;;;;;;;;;5068611;28;20074;-42
2021/07/08 12:15:23;;;;;;;38.20;6.78;;;;;;;;;;5070039;28;20030;-39
2021/07/08 12:17:55;;;;;;;42.92;7.10;;;;;;;;;;5066384;28;20043;-40
2021/07/08 12:20:22;;;;;;;36.92;6.18;;;;;;;;;;5070156;28;20058;-40
2021/07/08 12:22:53;;;;;;;27.48;5.72;;;;;;;;;;5068071;28;20074;-46
2021/07/08 12:25:21;;;;;;;25.67;5.60;;;;;;;;;;5069705;28;20387;-38
2021/07/08 12:27:49;;;;;;;23.63;5.47;;;;;;;;;;5068778;28;20086;-38
2021/07/08 12:30:19;;;;;;;21.15;4.57;;;;;;;;;;5063077;28;20036;-39
2021/07/08 12:32:47;;;;;;;14.15;4.32;;;;;;;;;;5050368;28;20056;-44
2021/07/08 12:35:14;;;;;;;18.77;4.03;;;;;;;;;;5067211;28;20107;-42
2021/07/08 12:37:41;;;;;;;16.77;4.53;;;;;;;;;;5069906;28;20017;-41
2021/07/08 12:40:10;;;;;;;15.60;4.97;;;;;;;;;;5069347;28;20040;-40
2021/07/08 12:42:39;;;;;;;19.52;4.47;;;;;;;;;;5069589;28;20048;-41
2021/07/08 12:45:10;;;;;;;25.42;5.07;;;;;;;;;;5069006;28;20020;-39
2021/07/08 12:47:38;;;;;;;22.63;4.38;;;;;;;;;;5067822;28;20448;-44
2021/07/08 12:50:06;;;;;;;17.17;4.85;;;;;;;;;;5068796;28;20070;-43
2021/07/08 12:52:37;;;;;;;17.23;4.07;;;;;;;;;;5069728;28;20028;-40
2021/07/08 12:55:06;;;;;;;17.42;4.20;;;;;;;;;;5069721;28;20495;-45
2021/07/08 12:57:34;;;;;;;18.92;4.05;;;;;;;;;;5056518;28;20028;-40
2021/07/08 13:00:02;;;;;;;13.02;3.17;;;;;;;;;;5067991;28;20032;-42
2021/07/08 13:02:30;;;;;;;13.85;3.65;;;;;;;;;;5069753;28;20033;-40
2021/07/08 13:05:10;;;;;;;24.13;4.65;;;;;;;;;;5069165;28;20064;-43
2021/07/08 13:07:37;;;;;;;15.98;3.85;;;;;;;;;;5069528;28;20021;-38
2021/07/08 13:10:06;;;;;;;18.10;4.05;;;;;;;;;;5067751;28;20028;-39
2021/07/08 13:12:33;;;;;;;15.18;3.10;;;;;;;;;;5069555;28;20476;-40
2021/07/08 13:15:00;;;;;;;19.38;4.05;;;;;;;;;;5072625;28;20042;-47
2021/07/08 13:17:31;;;;;;;14.30;3.72;;;;;;;;;;5072112;28;20017;-44
2021/07/08 13:20:09;;;;;;;16.42;3.63;;;;;;;;;;5074213;28;20035;-44
2021/07/08 13:22:46;;;;;;;19.02;3.60;;;;;;;;;;5071530;28;20035;-41
2021/07/08 13:25:18;;;;;;;27.33;4.22;;;;;;;;;;5056497;28;20345;-41
2021/07/08 13:27:46;;;;;;;20.17;3.40;;;;;;;;;;5073572;28;20036;-44
2021/07/08 13:30:26;;;;;;;24.85;4.35;;;;;;;;;;5073194;28;20028;-42
2021/07/08 13:33:04;;;;;;;16.45;4.28;;;;;;;;;;5072998;28;20039;-40
2021/07/08 13:35:39;;;;;;;16.70;3.50;;;;;;;;;;5071402;28;20021;-42
2021/07/08 13:38:13;;;;;;;18.80;4.32;;;;;;;;;;5073572;28;20135;-40
2021/07/08 13:40:40;;;;;;;20.38;4.72;;;;;;;;;;5073239;28;20111;-39
2021/07/08 13:43:13;;;;;;;19.58;4.18;;;;;;;;;;5072914;28;20020;-43
2021/07/08 13:45:41;;;;;;;12.80;4.20;;;;;;;;;;5072546;28;20070;-44
2021/07/08 13:48:17;;;;;;;20.33;3.85;;;;;;;;;;5071656;28;20111;-41
2021/07/08 13:50:49;;;;;;;14.07;4.10;;;;;;;;;;5073430;28;20044;-42
2021/07/08 13:53:16;;;;;;;17.08;3.90;;;;;;;;;;5072501;28;20074;-41
2021/07/08 13:55:44;;;;;;;11.75;4.53;;;;;;;;;;5072462;28;20024;-44
2021/07/08 13:58:12;;;;;;;16.63;4.65;;;;;;;;;;5070575;28;20024;-43
2021/07/08 14:00:39;;;;;;;20.17;4.07;;;;;;;;;;5072059;28;20025;-42
2021/07/08 14:03:06;;;;;;;16.20;4.38;;;;;;;;;;5070658;28;20025;-48
2021/07/08 14:05:33;;;;;;;14.32;4.38;;;;;;;;;;5052969;28;20044;-46
2021/07/08 14:08:00;;;;;;;10.88;3.88;;;;;;;;;;5052678;28;20032;-48
2021/07/08 14:10:27;;;;;;;11.77;3.72;;;;;;;;;;5051019;28;20033;-46
2021/07/08 14:12:54;;;;;;;15.38;3.97;;;;;;;;;;5051928;28;20025;-45
2021/07/08 14:15:21;;;;;;;11.55;4.20;;;;;;;;;;5052891;28;20111;-43
2021/07/08 14:17:48;;;;;;;14.68;4.57;;;;;;;;;;5052811;28;20136;-45
2021/07/08 14:20:15;;;;;;;15.63;4.75;;;;;;;;;;5200106;23;20061;-44
2021/07/08 14:22:42;;;;;;;15.98;3.80;;;;;;;;;;5041595;28;20017;-44
2021/07/08 14:25:10;;;;;;;13.77;3.92;;;;;;;;;;5049325;28;20104;-51
2021/07/08 14:27:37;;;;;;;9.65;3.63;;;;;;;;;;5050782;28;20079;-47
2021/07/08 14:30:04;;;;;;;11.75;3.75;;;;;;;;;;5054032;28;20044;-55
2021/07/08 14:32:31;;;;;;;8.85;3.25;;;;;;;;;;5046777;28;20022;-47
2021/07/08 14:34:58;;;;;;;10.80;3.65;;;;;;;;;;5027242;28;20036;-54
2021/07/08 14:37:26;;;;;;;16.88;4.10;;;;;;;;;;5039578;28;20384;-49
2021/07/08 14:39:53;;;;;;;14.05;3.33;;;;;;;;;;5048997;28;20025;-47